createdAt,value
2023-06-19T00:01:12.886Z,7.10
2023-06-19T00:03:40.259Z,6.57
2023-06-19T00:06:07.822Z,7.20
2023-06-19T00:08:35.420Z,7.55
2023-06-19T00:11:02.679Z,7.38
2023-06-19T00:13:30.068Z,7.35
2023-06-19T00:16:01.519Z,7.77
2023-06-19T00:18:29.713Z,6.95
2023-06-19T00:21:00.158Z,6.80
2023-06-19T00:23:27.776Z,6.18
2023-06-19T00:25:55.048Z,6.38
2023-06-19T00:28:22.650Z,5.53
2023-06-19T00:30:50.172Z,6.22
2023-06-19T00:33:17.423Z,6.35
2023-06-19T00:35:45.893Z,5.05
2023-06-19T00:38:13.258Z,5.57
2023-06-19T00:40:40.574Z,5.90
2023-06-19T00:43:10.026Z,5.80
2023-06-19T00:45:37.746Z,5.90
2023-06-19T00:48:05.837Z,6.07
2023-06-19T00:50:33.207Z,5.60
2023-06-19T00:53:01.146Z,6.00
2023-06-19T00:55:33.504Z,5.93
2023-06-19T00:58:02.246Z,5.85
2023-06-19T01:00:29.584Z,4.32
2023-06-19T01:02:58.645Z,4.60
2023-06-19T01:05:26.037Z,4.57
2023-06-19T01:07:59.230Z,3.22
2023-06-19T01:10:29.473Z,2.88
2023-06-19T01:13:03.567Z,2.55
2023-06-19T01:15:31.076Z,1.73
2023-06-19T01:17:59.515Z,1.97
2023-06-19T01:20:26.910Z,2.03
2023-06-19T01:22:58.002Z,2.30
2023-06-19T01:25:26.062Z,1.95
2023-06-19T01:27:53.656Z,2.30
2023-06-19T01:30:21.293Z,1.73
2023-06-19T01:32:55.070Z,2.22
2023-06-19T01:35:25.035Z,2.15
2023-06-19T01:37:54.127Z,2.05
2023-06-19T01:40:27.218Z,2.22
2023-06-19T01:42:55.593Z,1.90
2023-06-19T01:45:24.097Z,2.40
2023-06-19T01:47:51.474Z,2.28
2023-06-19T01:50:18.970Z,2.22
2023-06-19T01:52:46.590Z,2.40
2023-06-19T01:55:14.009Z,2.53
2023-06-19T01:57:41.355Z,2.30
2023-06-19T02:00:11.343Z,2.80
2023-06-19T02:02:41.604Z,2.92
2023-06-19T02:05:09.285Z,2.50
2023-06-19T02:07:36.735Z,2.60
2023-06-19T02:10:04.179Z,3.08
2023-06-19T02:12:31.524Z,2.90
2023-06-19T02:14:59.380Z,2.60
2023-06-19T02:17:26.930Z,3.45
2023-06-19T02:19:54.282Z,3.17
2023-06-19T02:22:21.634Z,3.30
2023-06-19T02:24:48.949Z,3.35
2023-06-19T02:27:17.080Z,3.50
2023-06-19T02:29:45.896Z,3.00
2023-06-19T02:32:13.678Z,3.50
2023-06-19T02:34:41.069Z,3.47
2023-06-19T02:37:09.299Z,3.60
2023-06-19T02:39:38.048Z,3.45
2023-06-19T02:42:05.820Z,3.17
2023-06-19T02:44:33.102Z,3.80
2023-06-19T02:47:00.437Z,3.83
2023-06-19T02:49:27.789Z,3.90
2023-06-19T02:51:55.068Z,3.75
2023-06-19T02:54:23.529Z,4.25
2023-06-19T02:56:50.972Z,3.83
2023-06-19T02:59:18.748Z,4.03
2023-06-19T03:01:46.156Z,4.70
2023-06-19T03:04:14.824Z,4.38
2023-06-19T03:06:42.120Z,4.28
2023-06-19T03:09:13.289Z,4.70
2023-06-19T03:11:41.246Z,5.00
2023-06-19T03:14:09.780Z,4.47
2023-06-19T03:16:37.811Z,4.55
2023-06-19T03:19:05.345Z,5.38
2023-06-19T03:21:36.584Z,5.87
2023-06-19T03:24:04.293Z,5.95
2023-06-19T03:26:31.665Z,5.85
2023-06-19T03:29:01.737Z,5.35
2023-06-19T03:31:36.029Z,7.18
2023-06-19T03:34:04.066Z,6.63
2023-06-19T03:36:31.367Z,6.78
2023-06-19T03:39:06.290Z,8.15
2023-06-19T03:41:34.045Z,7.95
2023-06-19T03:44:01.365Z,8.18
2023-06-19T03:46:29.362Z,8.37
2023-06-19T03:48:56.742Z,8.10
2023-06-19T03:51:24.105Z,8.70
2023-06-19T03:53:51.438Z,8.57
2023-06-19T03:56:18.768Z,10.02
2023-06-19T03:58:46.211Z,9.67
2023-06-19T04:01:13.960Z,10.90
2023-06-19T04:03:42.298Z,10.93
2023-06-19T04:06:09.801Z,11.10
2023-06-19T04:08:40.236Z,10.68
2023-06-19T04:11:07.569Z,9.83
2023-06-19T04:13:35.064Z,8.63
2023-06-19T04:16:02.405Z,8.95
2023-06-19T04:18:29.805Z,10.05
2023-06-19T04:20:57.932Z,12.07
2023-06-19T04:23:25.240Z,10.30
2023-06-19T04:25:52.527Z,10.40
2023-06-19T04:28:19.917Z,10.15
2023-06-19T04:30:47.217Z,9.25
2023-06-19T04:33:14.611Z,8.55
2023-06-19T04:35:42.071Z,7.83
2023-06-19T04:38:10.309Z,6.65
2023-06-19T04:40:37.713Z,5.97
2023-06-19T04:43:06.851Z,4.63
2023-06-19T04:45:34.305Z,3.60
2023-06-19T04:48:04.430Z,2.80
2023-06-19T04:50:32.167Z,2.50
2023-06-19T04:52:59.454Z,2.03
2023-06-19T04:55:26.929Z,2.03
2023-06-19T04:57:54.298Z,1.80
2023-06-19T05:00:23.050Z,1.40
2023-06-19T05:02:50.802Z,1.58
2023-06-19T05:05:20.837Z,1.42
2023-06-19T05:07:49.828Z,1.40
2023-06-19T05:10:17.635Z,2.00
2023-06-19T05:12:44.934Z,1.33
2023-06-19T05:15:12.621Z,1.65
2023-06-19T05:17:40.200Z,2.05
2023-06-19T05:20:12.898Z,1.52
2023-06-19T05:22:40.280Z,2.30
2023-06-19T05:25:08.130Z,2.80
2023-06-19T05:27:35.561Z,2.67
2023-06-19T05:30:03.038Z,2.95
2023-06-19T05:32:30.407Z,3.40
2023-06-19T05:34:57.817Z,4.07
2023-06-19T05:37:27.348Z,3.80
2023-06-19T05:39:54.676Z,4.68
2023-06-19T05:42:21.984Z,4.47
2023-06-19T05:44:49.307Z,5.10
2023-06-19T05:47:18.268Z,4.90
2023-06-19T05:49:45.657Z,4.80
2023-06-19T05:52:12.969Z,3.83
2023-06-19T05:54:40.238Z,4.60
2023-06-19T05:57:08.024Z,4.68
2023-06-19T05:59:35.401Z,4.00
2023-06-19T06:02:04.296Z,4.00
2023-06-19T06:04:35.551Z,3.83
2023-06-19T06:07:02.909Z,3.95
2023-06-19T06:09:30.305Z,5.03
2023-06-19T06:11:57.643Z,4.40
2023-06-19T06:14:25.268Z,4.93
2023-06-19T06:16:53.032Z,5.93
2023-06-19T06:19:26.233Z,5.78
2023-06-19T06:21:53.583Z,5.78
2023-06-19T06:24:20.964Z,7.07
2023-06-19T06:26:48.397Z,6.83
2023-06-19T06:29:15.774Z,6.50
2023-06-19T06:31:43.126Z,7.13
2023-06-19T06:34:10.429Z,7.78
2023-06-19T06:36:41.861Z,8.45
2023-06-19T06:39:14.026Z,7.80
2023-06-19T06:41:41.315Z,9.85
2023-06-19T06:44:13.143Z,8.73
2023-06-19T06:46:40.470Z,9.00
2023-06-19T06:49:07.780Z,9.73
2023-06-19T06:51:35.276Z,9.17
2023-06-19T06:54:02.562Z,9.00
2023-06-19T06:56:30.483Z,9.15
2023-06-19T06:58:57.720Z,10.13
2023-06-19T07:01:25.073Z,9.27
2023-06-19T07:03:52.577Z,9.80
2023-06-19T07:06:19.907Z,9.18
2023-06-19T07:08:48.732Z,8.85
2023-06-19T07:11:16.160Z,8.00
2023-06-19T07:13:43.465Z,9.68
2023-06-19T07:16:10.837Z,9.10
2023-06-19T07:18:39.911Z,8.25
2023-06-19T07:21:11.216Z,8.90
2023-06-19T07:23:38.599Z,8.38
2023-06-19T07:26:06.013Z,8.35
2023-06-19T07:28:33.366Z,8.50
2023-06-19T07:31:00.677Z,9.23
2023-06-19T07:33:28.035Z,10.65
2023-06-19T07:35:55.342Z,11.93
2023-06-19T07:38:22.627Z,12.88
2023-06-19T07:40:50.489Z,12.63
2023-06-19T07:43:18.689Z,13.80
2023-06-19T07:45:46.094Z,11.75
2023-06-19T07:48:13.442Z,12.77
2023-06-19T07:50:40.771Z,12.57
2023-06-19T07:53:08.155Z,10.57
2023-06-19T07:55:38.217Z,11.85
2023-06-19T07:58:05.582Z,13.00
2023-06-19T08:00:32.884Z,12.20
2023-06-19T08:03:00.344Z,15.27
2023-06-19T08:05:27.905Z,14.27
2023-06-19T08:07:55.192Z,16.13
2023-06-19T08:10:22.524Z,14.82
2023-06-19T08:12:51.127Z,15.50
2023-06-19T08:15:20.340Z,15.70
2023-06-19T08:17:47.775Z,14.43
2023-06-19T08:20:15.466Z,14.85
2023-06-19T08:22:42.863Z,14.60
2023-06-19T08:25:10.344Z,14.32
2023-06-19T08:27:37.663Z,14.13
2023-06-19T08:30:05.218Z,13.40
2023-06-19T08:32:32.701Z,16.25
2023-06-19T08:35:00.079Z,15.68
2023-06-19T08:37:27.446Z,14.52
2023-06-19T08:39:56.543Z,15.77
2023-06-19T08:42:24.409Z,16.03
2023-06-19T08:44:51.761Z,14.70
2023-06-19T08:47:19.230Z,15.07
2023-06-19T08:49:47.475Z,15.65
2023-06-19T08:52:14.822Z,16.23
2023-06-19T08:54:45.352Z,15.23
2023-06-19T08:57:13.674Z,16.00
2023-06-19T08:59:41.267Z,16.40
2023-06-19T09:02:08.695Z,14.75
2023-06-19T09:04:36.104Z,15.80
2023-06-19T09:07:04.870Z,16.83
2023-06-19T09:09:47.309Z,16.80
2023-06-19T09:12:15.529Z,16.13
2023-06-19T09:14:46.987Z,15.90
2023-06-19T09:17:18.922Z,16.25
2023-06-19T09:19:53.279Z,14.77
2023-06-19T09:22:23.050Z,16.88
2023-06-19T09:24:50.604Z,15.85
2023-06-19T09:27:21.867Z,16.25
2023-06-19T09:29:50.618Z,14.82
2023-06-19T09:32:18.755Z,15.40
2023-06-19T09:34:47.646Z,16.15
2023-06-19T09:37:15.399Z,15.82
2023-06-19T09:39:43.290Z,15.38
2023-06-19T09:42:15.132Z,13.82
2023-06-19T09:44:46.301Z,13.73
2023-06-19T09:47:21.818Z,14.95
2023-06-19T09:49:56.894Z,14.63
2023-06-19T09:52:25.236Z,15.73
2023-06-19T09:55:04.360Z,14.63
2023-06-19T09:57:32.023Z,15.40
2023-06-19T10:00:02.169Z,15.73
2023-06-19T10:02:40.374Z,15.95
2023-06-19T10:05:14.432Z,13.85
2023-06-19T10:07:46.494Z,16.75
2023-06-19T10:10:24.472Z,16.37
2023-06-19T10:12:52.185Z,16.42
2023-06-19T10:15:28.506Z,13.63
2023-06-19T10:18:04.305Z,14.70
2023-06-19T10:20:33.481Z,15.50
2023-06-19T10:23:04.467Z,15.53
2023-06-19T10:25:34.611Z,14.90
2023-06-19T10:28:01.976Z,14.80
2023-06-19T10:30:31.069Z,11.20
2023-06-19T10:32:58.608Z,13.68
2023-06-19T10:35:26.138Z,13.20
2023-06-19T10:37:53.538Z,14.85
2023-06-19T10:40:21.095Z,15.60
2023-06-19T10:42:48.915Z,15.15
2023-06-19T10:45:20.445Z,14.10
2023-06-19T10:47:48.286Z,15.87
2023-06-19T10:50:16.354Z,15.10
2023-06-19T10:52:44.640Z,14.45
2023-06-19T10:55:12.725Z,13.90
2023-06-19T10:57:40.706Z,14.35
2023-06-19T11:00:13.933Z,13.23
2023-06-19T11:02:44.548Z,13.23
2023-06-19T11:05:13.214Z,12.93
2023-06-19T11:07:40.548Z,14.20
2023-06-19T11:10:08.659Z,12.85
2023-06-19T11:12:36.156Z,12.87
2023-06-19T11:15:06.858Z,12.73
2023-06-19T11:17:34.541Z,13.95
2023-06-19T11:20:01.962Z,12.75
2023-06-19T11:22:39.855Z,13.93
2023-06-19T11:25:08.079Z,13.43
2023-06-19T11:27:36.218Z,12.05
2023-06-19T11:30:07.249Z,12.48
2023-06-19T11:32:42.312Z,11.82
2023-06-19T11:35:13.791Z,11.10
2023-06-19T11:37:42.134Z,10.97
2023-06-19T11:40:16.558Z,10.77
2023-06-19T11:42:49.040Z,10.70
2023-06-19T11:45:16.671Z,10.50
2023-06-19T11:47:45.187Z,11.40
2023-06-19T11:50:12.730Z,11.93
2023-06-19T11:52:41.450Z,12.05
2023-06-19T11:55:08.994Z,11.55
2023-06-19T11:57:36.541Z,11.25
2023-06-19T12:00:08.671Z,11.13
2023-06-19T12:02:40.308Z,10.90
2023-06-19T12:05:07.886Z,10.98
2023-06-19T12:07:35.231Z,11.15
2023-06-19T12:10:04.194Z,10.48
2023-06-19T12:12:32.221Z,10.50
2023-06-19T12:14:59.565Z,9.70
2023-06-19T12:17:27.396Z,9.98
2023-06-19T12:19:55.222Z,9.88
2023-06-19T12:22:22.595Z,10.95
2023-06-19T12:24:50.027Z,10.25
2023-06-19T12:27:17.529Z,10.07
2023-06-19T12:29:45.298Z,8.95
2023-06-19T12:32:12.575Z,9.20
2023-06-19T12:34:41.369Z,9.43
2023-06-19T12:37:08.710Z,9.27
2023-06-19T12:39:36.030Z,8.60
2023-06-19T12:42:03.408Z,9.52
2023-06-19T12:44:30.739Z,10.00
2023-06-19T12:46:59.792Z,9.77
2023-06-19T12:49:27.152Z,9.82
2023-06-19T12:51:54.583Z,9.57
2023-06-19T12:54:22.058Z,10.30
2023-06-19T12:56:49.879Z,10.32
2023-06-19T12:59:17.459Z,9.95
2023-06-19T13:01:44.950Z,10.07
2023-06-19T13:04:13.501Z,9.50
2023-06-19T13:06:41.181Z,8.45
2023-06-19T13:09:08.799Z,8.18
2023-06-19T13:11:36.501Z,7.90
2023-06-19T13:14:04.033Z,9.00
2023-06-19T13:16:45.269Z,7.13
2023-06-19T13:19:13.822Z,7.45
2023-06-19T13:21:41.920Z,7.88
2023-06-19T13:24:09.352Z,7.07
2023-06-19T13:26:37.142Z,7.20
2023-06-19T13:29:04.749Z,6.93
2023-06-19T13:31:32.100Z,7.68
2023-06-19T13:33:59.780Z,8.70
2023-06-19T13:36:28.106Z,8.32
2023-06-19T13:38:55.624Z,7.72
2023-06-19T13:41:25.143Z,6.90
2023-06-19T13:43:54.795Z,6.78
2023-06-19T13:46:25.532Z,6.45
2023-06-19T13:48:53.244Z,6.53
2023-06-19T13:51:21.704Z,6.50
2023-06-19T13:53:49.641Z,7.40
2023-06-19T13:56:17.087Z,7.50
2023-06-19T13:58:44.448Z,7.30
2023-06-19T14:01:11.902Z,6.10
2023-06-19T14:03:42.570Z,7.03
2023-06-19T14:06:10.038Z,6.90
2023-06-19T14:08:37.353Z,6.47
2023-06-19T14:11:04.634Z,6.53
2023-06-19T14:13:32.042Z,6.30
2023-06-19T14:15:59.316Z,7.22
2023-06-19T14:18:26.859Z,7.17
2023-06-19T14:20:54.202Z,6.75
2023-06-19T14:23:21.526Z,6.97
2023-06-19T14:25:48.867Z,6.78
2023-06-19T14:28:16.498Z,6.82
2023-06-19T14:30:43.782Z,6.97
2023-06-19T14:33:16.069Z,6.90
2023-06-19T14:35:45.881Z,6.65
2023-06-19T14:38:16.577Z,6.40
2023-06-19T14:40:44.025Z,6.07
2023-06-19T14:43:11.387Z,5.87
2023-06-19T14:45:40.677Z,5.68
2023-06-19T14:48:08.104Z,5.57
2023-06-19T14:50:36.555Z,6.10
2023-06-19T14:53:03.905Z,5.28
2023-06-19T14:55:31.299Z,6.23
2023-06-19T14:57:58.762Z,5.85
2023-06-19T15:00:26.411Z,6.38
2023-06-19T15:02:54.213Z,5.18
2023-06-19T15:05:21.558Z,6.47
2023-06-19T15:07:48.842Z,6.67
2023-06-19T15:10:16.168Z,6.22
2023-06-19T15:12:43.587Z,6.55
2023-06-19T15:15:11.143Z,6.05
2023-06-19T15:17:38.559Z,6.72
2023-06-19T15:20:06.352Z,5.83
2023-06-19T15:22:33.682Z,5.25
2023-06-19T15:25:01.024Z,6.00
2023-06-19T15:27:28.329Z,6.18
2023-06-19T15:29:55.806Z,6.72
2023-06-19T15:32:23.121Z,5.87
2023-06-19T15:34:50.495Z,5.35
2023-06-19T15:37:17.861Z,5.38
2023-06-19T15:39:45.515Z,5.75
2023-06-19T15:42:12.999Z,5.93
2023-06-19T15:44:40.311Z,5.87
2023-06-19T15:47:07.950Z,5.95
2023-06-19T15:49:37.532Z,5.60
2023-06-19T15:52:05.353Z,5.95
2023-06-19T15:54:32.773Z,5.50
2023-06-19T15:57:00.221Z,5.40
2023-06-19T15:59:27.618Z,5.40
2023-06-19T16:01:55.027Z,6.07
2023-06-19T16:04:22.513Z,5.63
2023-06-19T16:06:49.863Z,5.13
2023-06-19T16:09:17.198Z,5.60
2023-06-19T16:11:44.548Z,5.57
2023-06-19T16:14:12.273Z,5.20
2023-06-19T16:16:39.694Z,5.38
2023-06-19T16:19:07.072Z,5.85
2023-06-19T16:21:34.448Z,5.70
2023-06-19T16:24:01.811Z,5.60
2023-06-19T16:26:29.888Z,6.03
2023-06-19T16:28:57.242Z,6.10
2023-06-19T16:31:24.642Z,5.22
2023-06-19T16:33:53.012Z,4.90
2023-06-19T16:36:21.181Z,4.30
2023-06-19T16:38:48.546Z,5.65
2023-06-19T16:41:19.193Z,5.32
2023-06-19T16:43:48.061Z,6.28
2023-06-19T16:46:15.540Z,6.37
2023-06-19T16:48:42.921Z,5.43
2023-06-19T16:51:10.208Z,5.35
2023-06-19T16:53:37.509Z,5.63
2023-06-19T16:56:04.905Z,6.00
2023-06-19T16:58:32.329Z,5.70
2023-06-19T17:00:59.815Z,5.00
2023-06-19T17:03:27.248Z,5.80
2023-06-19T17:05:54.639Z,5.90
2023-06-19T17:08:21.964Z,4.78
2023-06-19T17:10:49.311Z,5.00
2023-06-19T17:13:16.590Z,5.25
2023-06-19T17:15:43.991Z,5.53
2023-06-19T17:18:11.370Z,5.75
2023-06-19T17:20:38.762Z,5.60
2023-06-19T17:23:06.097Z,5.37
2023-06-19T17:25:33.721Z,5.07
2023-06-19T17:28:01.125Z,5.13
2023-06-19T17:30:28.783Z,5.25
2023-06-19T17:32:56.152Z,5.30
2023-06-19T17:35:25.309Z,5.13
2023-06-19T17:37:52.671Z,4.85
2023-06-19T17:40:20.023Z,5.60
2023-06-19T17:42:47.414Z,5.15
2023-06-19T17:45:14.738Z,4.97
2023-06-19T17:47:42.153Z,4.90
2023-06-19T17:50:09.714Z,5.55
2023-06-19T17:52:37.138Z,5.93
2023-06-19T17:55:04.644Z,5.93
2023-06-19T17:57:32.196Z,5.63
2023-06-19T18:00:00.678Z,5.20
2023-06-19T18:02:39.236Z,5.22
2023-06-19T18:05:06.930Z,5.00
2023-06-19T18:07:34.212Z,5.90
2023-06-19T18:10:01.559Z,5.00
2023-06-19T18:12:28.854Z,5.30
2023-06-19T18:14:56.192Z,5.47
2023-06-19T18:17:23.710Z,6.35
2023-06-19T18:19:51.642Z,5.25
2023-06-19T18:22:19.016Z,5.28
2023-06-19T18:24:46.460Z,5.93
2023-06-19T18:27:13.861Z,7.38
2023-06-19T18:29:41.198Z,6.90
2023-06-19T18:32:08.716Z,5.40
2023-06-19T18:34:36.022Z,5.30
2023-06-19T18:37:03.462Z,5.33
2023-06-19T18:39:30.803Z,5.03
2023-06-19T18:41:58.163Z,10.27
2023-06-19T18:44:25.534Z,10.23
2023-06-19T18:46:52.867Z,9.10
2023-06-19T18:49:20.153Z,7.00
2023-06-19T18:51:47.546Z,6.30
2023-06-19T18:54:14.824Z,5.80
2023-06-19T18:56:42.149Z,5.45
2023-06-19T18:59:09.450Z,5.07
2023-06-19T19:01:36.851Z,5.40
2023-06-19T19:04:04.185Z,5.32
2023-06-19T19:06:31.586Z,5.43
2023-06-19T19:09:00.303Z,5.00
2023-06-19T19:11:27.684Z,5.75
2023-06-19T19:13:54.980Z,5.10
2023-06-19T19:16:22.459Z,5.30
2023-06-19T19:18:49.806Z,5.13
2023-06-19T19:21:17.085Z,5.00
2023-06-19T19:23:44.492Z,5.03
2023-06-19T19:26:11.921Z,4.83
2023-06-19T19:28:39.292Z,4.30
2023-06-19T19:31:06.744Z,5.35
2023-06-19T19:33:34.086Z,6.03
2023-06-19T19:36:02.327Z,7.10
2023-06-19T19:38:29.684Z,6.20
2023-06-19T19:40:57.008Z,5.50
2023-06-19T19:43:24.278Z,5.82
2023-06-19T19:45:51.756Z,5.20
2023-06-19T19:48:19.073Z,4.88
2023-06-19T19:50:46.400Z,4.90
2023-06-19T19:53:13.825Z,5.10
2023-06-19T19:55:41.560Z,5.10
2023-06-19T19:58:08.980Z,5.35
2023-06-19T20:00:36.308Z,5.07
2023-06-19T20:03:03.810Z,5.07
2023-06-19T20:05:31.465Z,5.75
2023-06-19T20:07:58.796Z,5.60
2023-06-19T20:10:26.298Z,4.70
2023-06-19T20:12:53.742Z,5.22
2023-06-19T20:15:21.078Z,4.90
2023-06-19T20:17:48.494Z,4.57
2023-06-19T20:20:15.945Z,4.25
2023-06-19T20:22:43.263Z,4.43
2023-06-19T20:25:10.778Z,4.65
2023-06-19T20:27:38.050Z,4.27
2023-06-19T20:30:05.663Z,4.60
2023-06-19T20:32:32.950Z,4.03
2023-06-19T20:35:00.303Z,4.25
2023-06-19T20:37:28.211Z,4.13
2023-06-19T20:39:55.536Z,4.00
2023-06-19T20:42:22.823Z,4.00
2023-06-19T20:44:50.888Z,4.25
2023-06-19T20:47:19.827Z,4.20
2023-06-19T20:49:47.158Z,4.10
2023-06-19T20:52:14.546Z,4.27
2023-06-19T20:54:41.903Z,3.72
2023-06-19T20:57:09.310Z,3.92
2023-06-19T20:59:36.766Z,3.75
2023-06-19T21:02:04.393Z,4.10
2023-06-19T21:04:31.769Z,4.50
2023-06-19T21:06:59.460Z,4.40
2023-06-19T21:09:27.885Z,3.95
2023-06-19T21:11:55.238Z,4.00
2023-06-19T21:14:23.356Z,4.28
2023-06-19T21:16:51.147Z,5.17
2023-06-19T21:19:18.545Z,4.85
2023-06-19T21:21:45.999Z,4.63
2023-06-19T21:24:13.919Z,4.30
2023-06-19T21:26:41.312Z,4.85
2023-06-19T21:29:08.675Z,3.80
2023-06-19T21:31:35.988Z,4.65
2023-06-19T21:34:03.339Z,4.57
2023-06-19T21:36:30.652Z,5.30
2023-06-19T21:38:57.989Z,4.80
2023-06-19T21:41:25.207Z,4.50
2023-06-19T21:43:52.537Z,5.07
2023-06-19T21:46:19.844Z,4.90
2023-06-19T21:48:47.327Z,4.40
2023-06-19T21:51:14.693Z,5.53
2023-06-19T21:53:42.037Z,5.03
2023-06-19T21:56:09.308Z,4.93
2023-06-19T21:58:36.582Z,4.93
2023-06-19T22:01:03.945Z,5.00
2023-06-19T22:03:31.329Z,5.20
2023-06-19T22:06:00.606Z,5.17
2023-06-19T22:11:01.383Z,5.50
2023-06-19T22:13:30.358Z,5.20
2023-06-19T22:15:57.766Z,4.90
2023-06-19T22:18:26.123Z,4.83
2023-06-19T22:20:53.754Z,5.07
2023-06-19T22:23:21.118Z,4.53
2023-06-19T22:25:48.465Z,4.32
2023-06-19T22:28:16.542Z,4.70
2023-06-19T22:30:44.156Z,4.67
2023-06-19T22:33:11.610Z,4.60
2023-06-19T22:35:38.989Z,5.25
2023-06-19T22:38:06.291Z,4.85
2023-06-19T22:40:33.796Z,5.45
2023-06-19T22:43:01.066Z,5.10
2023-06-19T22:45:28.638Z,5.53
2023-06-19T22:47:56.262Z,5.40
2023-06-19T22:50:26.161Z,4.82
2023-06-19T22:52:54.005Z,5.07
2023-06-19T22:55:22.036Z,5.30
2023-06-19T22:57:49.326Z,5.00
2023-06-19T23:00:16.828Z,5.13
2023-06-19T23:02:45.502Z,5.45
2023-06-19T23:05:13.742Z,5.07
2023-06-19T23:07:41.569Z,5.37
2023-06-19T23:10:09.134Z,4.65
2023-06-19T23:12:36.827Z,4.75
2023-06-19T23:15:04.394Z,4.72
2023-06-19T23:17:31.766Z,5.05
2023-06-19T23:19:59.612Z,4.97
2023-06-19T23:22:27.322Z,3.85
2023-06-19T23:24:55.081Z,4.80
2023-06-19T23:27:22.420Z,4.78
2023-06-19T23:29:52.206Z,4.70
2023-06-19T23:32:19.863Z,4.40
2023-06-19T23:34:47.202Z,5.03
2023-06-19T23:37:14.575Z,5.10
2023-06-19T23:39:41.974Z,4.72
2023-06-19T23:42:09.736Z,4.78
2023-06-19T23:44:37.062Z,4.40
2023-06-19T23:47:04.529Z,4.32
2023-06-19T23:49:31.789Z,4.47
2023-06-19T23:51:59.431Z,4.63
2023-06-19T23:54:26.773Z,4.72
2023-06-19T23:56:54.058Z,4.10
2023-06-19T23:59:21.395Z,4.57
